sensor_id;sensor_type;location;lat;lon;timestamp;pressure;altitude;pressure_sealevel;temperature
74321;BMP280;62738;45.772;4.804;2023-04-15T00:01:06;98869.81;;;13.21
74321;BMP280;62738;45.772;4.804;2023-04-15T00:03:33;98872.38;;;13.16
74321;BMP280;62738;45.772;4.804;2023-04-15T00:06:01;98872.16;;;13.24
74321;BMP280;62738;45.772;4.804;2023-04-15T00:08:27;98876.50;;;13.27
74321;BMP280;62738;45.772;4.804;2023-04-15T00:10:55;98866.69;;;13.26
74321;BMP280;62738;45.772;4.804;2023-04-15T00:13:22;98865.00;;;13.44
74321;BMP280;62738;45.772;4.804;2023-04-15T00:15:48;98870.47;;;13.31
74321;BMP280;62738;45.772;4.804;2023-04-15T00:18:15;98865.50;;;13.29
74321;BMP280;62738;45.772;4.804;2023-04-15T00:20:42;98862.47;;;13.37
74321;BMP280;62738;45.772;4.804;2023-04-15T00:23:08;98867.06;;;13.55
74321;BMP280;62738;45.772;4.804;2023-04-15T00:25:35;98862.81;;;13.54
74321;BMP280;62738;45.772;4.804;2023-04-15T00:28:02;98862.81;;;13.54
74321;BMP280;62738;45.772;4.804;2023-04-15T00:30:29;98858.34;;;13.49
74321;BMP280;62738;45.772;4.804;2023-04-15T00:32:56;98871.28;;;13.33
74321;BMP280;62738;45.772;4.804;2023-04-15T00:35:23;98871.28;;;13.22
74321;BMP280;62738;45.772;4.804;2023-04-15T00:37:50;98879.78;;;13.24
74321;BMP280;62738;45.772;4.804;2023-04-15T00:40:18;98870.19;;;13.15
74321;BMP280;62738;45.772;4.804;2023-04-15T00:42:46;98863.69;;;13.69
74321;BMP280;62738;45.772;4.804;2023-04-15T00:45:13;98860.88;;;13.45
74321;BMP280;62738;45.772;4.804;2023-04-15T00:47:42;98863.06;;;13.35
74321;BMP280;62738;45.772;4.804;2023-04-15T00:50:11;98873.25;;;13.31
74321;BMP280;62738;45.772;4.804;2023-04-15T00:52:38;98873.59;;;13.25
74321;BMP280;62738;45.772;4.804;2023-04-15T00:55:06;98868.41;;;12.87
74321;BMP280;62738;45.772;4.804;2023-04-15T00:57:34;98871.63;;;13.04
74321;BMP280;62738;45.772;4.804;2023-04-15T01:00:01;98873.84;;;13.06
74321;BMP280;62738;45.772;4.804;2023-04-15T01:02:30;98867.72;;;12.86
74321;BMP280;62738;45.772;4.804;2023-04-15T01:04:58;98869.16;;;12.54
74321;BMP280;62738;45.772;4.804;2023-04-15T01:07:24;98863.66;;;12.66
74321;BMP280;62738;45.772;4.804;2023-04-15T01:09:51;98865.28;;;12.81
74321;BMP280;62738;45.772;4.804;2023-04-15T01:12:19;98871.78;;;12.73
74321;BMP280;62738;45.772;4.804;2023-04-15T01:14:46;98861.47;;;12.64
74321;BMP280;62738;45.772;4.804;2023-04-15T01:17:12;98862.66;;;12.61
74321;BMP280;62738;45.772;4.804;2023-04-15T01:19:39;98863.56;;;12.75
74321;BMP280;62738;45.772;4.804;2023-04-15T01:22:06;98849.41;;;12.83
74321;BMP280;62738;45.772;4.804;2023-04-15T01:24:34;98863.19;;;12.69
74321;BMP280;62738;45.772;4.804;2023-04-15T01:27:03;98864.31;;;12.88
74321;BMP280;62738;45.772;4.804;2023-04-15T01:29:36;98867.81;;;12.77
74321;BMP280;62738;45.772;4.804;2023-04-15T01:32:03;98864.44;;;12.78
74321;BMP280;62738;45.772;4.804;2023-04-15T01:34:31;98860.00;;;12.96
74321;BMP280;62738;45.772;4.804;2023-04-15T01:37:01;98866.19;;;12.62
74321;BMP280;62738;45.772;4.804;2023-04-15T01:39:27;98860.94;;;12.89
74321;BMP280;62738;45.772;4.804;2023-04-15T01:41:54;98867.22;;;12.90
74321;BMP280;62738;45.772;4.804;2023-04-15T01:44:20;98863.16;;;13.14
74321;BMP280;62738;45.772;4.804;2023-04-15T01:46:47;98866.09;;;13.51
74321;BMP280;62738;45.772;4.804;2023-04-15T01:49:14;98866.44;;;13.22
74321;BMP280;62738;45.772;4.804;2023-04-15T01:51:40;98856.44;;;12.84
74321;BMP280;62738;45.772;4.804;2023-04-15T01:54:07;98861.09;;;12.58
74321;BMP280;62738;45.772;4.804;2023-04-15T01:56:33;98861.19;;;12.49
74321;BMP280;62738;45.772;4.804;2023-04-15T01:59:00;98864.69;;;12.49
74321;BMP280;62738;45.772;4.804;2023-04-15T02:01:27;98866.28;;;12.31
74321;BMP280;62738;45.772;4.804;2023-04-15T02:03:54;98867.13;;;12.55
74321;BMP280;62738;45.772;4.804;2023-04-15T02:06:22;98865.78;;;12.56
74321;BMP280;62738;45.772;4.804;2023-04-15T02:08:48;98872.41;;;12.84
74321;BMP280;62738;45.772;4.804;2023-04-15T02:11:15;98869.63;;;12.84
74321;BMP280;62738;45.772;4.804;2023-04-15T02:13:42;98869.38;;;13.24
74321;BMP280;62738;45.772;4.804;2023-04-15T02:16:16;98867.19;;;13.11
74321;BMP280;62738;45.772;4.804;2023-04-15T02:18:46;98859.91;;;13.52
74321;BMP280;62738;45.772;4.804;2023-04-15T02:21:13;98858.56;;;13.53
74321;BMP280;62738;45.772;4.804;2023-04-15T02:23:40;98856.78;;;13.35
74321;BMP280;62738;45.772;4.804;2023-04-15T02:26:06;98852.13;;;12.93
74321;BMP280;62738;45.772;4.804;2023-04-15T02:28:33;98855.69;;;12.39
74321;BMP280;62738;45.772;4.804;2023-04-15T02:31:04;98861.00;;;12.14
74321;BMP280;62738;45.772;4.804;2023-04-15T02:33:32;98857.53;;;12.04
74321;BMP280;62738;45.772;4.804;2023-04-15T02:35:58;98861.94;;;12.07
74321;BMP280;62738;45.772;4.804;2023-04-15T02:38:25;98860.13;;;12.32
74321;BMP280;62738;45.772;4.804;2023-04-15T02:40:52;98862.72;;;12.40
74321;BMP280;62738;45.772;4.804;2023-04-15T02:43:18;98865.88;;;12.25
74321;BMP280;62738;45.772;4.804;2023-04-15T02:45:45;98865.09;;;12.13
74321;BMP280;62738;45.772;4.804;2023-04-15T02:48:12;98854.66;;;12.56
74321;BMP280;62738;45.772;4.804;2023-04-15T02:50:39;98856.09;;;12.78
74321;BMP280;62738;45.772;4.804;2023-04-15T02:53:06;98857.19;;;12.85
74321;BMP280;62738;45.772;4.804;2023-04-15T02:55:32;98861.53;;;12.88
74321;BMP280;62738;45.772;4.804;2023-04-15T02:57:59;98851.97;;;12.46
74321;BMP280;62738;45.772;4.804;2023-04-15T03:00:26;98857.81;;;12.50
74321;BMP280;62738;45.772;4.804;2023-04-15T03:02:57;98857.16;;;12.40
74321;BMP280;62738;45.772;4.804;2023-04-15T03:05:25;98859.03;;;12.59
74321;BMP280;62738;45.772;4.804;2023-04-15T03:07:52;98851.72;;;12.75
74321;BMP280;62738;45.772;4.804;2023-04-15T03:10:20;98867.94;;;12.79
74321;BMP280;62738;45.772;4.804;2023-04-15T03:12:47;98867.78;;;12.65
74321;BMP280;62738;45.772;4.804;2023-04-15T03:15:14;98866.53;;;12.56
74321;BMP280;62738;45.772;4.804;2023-04-15T03:17:41;98871.53;;;12.69
74321;BMP280;62738;45.772;4.804;2023-04-15T03:20:07;98873.72;;;12.38
74321;BMP280;62738;45.772;4.804;2023-04-15T03:22:34;98865.16;;;12.46
74321;BMP280;62738;45.772;4.804;2023-04-15T03:25:01;98862.59;;;12.83
74321;BMP280;62738;45.772;4.804;2023-04-15T03:27:28;98859.69;;;13.25
74321;BMP280;62738;45.772;4.804;2023-04-15T03:29:55;98855.78;;;13.07
74321;BMP280;62738;45.772;4.804;2023-04-15T03:32:22;98864.03;;;13.28
74321;BMP280;62738;45.772;4.804;2023-04-15T03:34:48;98862.09;;;13.54
74321;BMP280;62738;45.772;4.804;2023-04-15T03:37:15;98852.63;;;13.59
74321;BMP280;62738;45.772;4.804;2023-04-15T03:39:42;98875.91;;;13.40
74321;BMP280;62738;45.772;4.804;2023-04-15T03:42:08;98855.06;;;13.65
74321;BMP280;62738;45.772;4.804;2023-04-15T03:44:35;98854.81;;;13.72
74321;BMP280;62738;45.772;4.804;2023-04-15T03:47:02;98855.56;;;13.61
74321;BMP280;62738;45.772;4.804;2023-04-15T03:49:29;98852.63;;;13.59
74321;BMP280;62738;45.772;4.804;2023-04-15T03:51:55;98864.66;;;13.38
74321;BMP280;62738;45.772;4.804;2023-04-15T03:54:22;98864.97;;;12.98
74321;BMP280;62738;45.772;4.804;2023-04-15T03:56:49;98866.22;;;13.06
74321;BMP280;62738;45.772;4.804;2023-04-15T03:59:16;98857.72;;;13.28
74321;BMP280;62738;45.772;4.804;2023-04-15T04:01:42;98860.16;;;13.33
74321;BMP280;62738;45.772;4.804;2023-04-15T04:04:09;98858.00;;;13.32
74321;BMP280;62738;45.772;4.804;2023-04-15T04:06:36;98855.66;;;13.16
74321;BMP280;62738;45.772;4.804;2023-04-15T04:09:03;98863.81;;;13.36
74321;BMP280;62738;45.772;4.804;2023-04-15T04:11:29;98866.47;;;13.34
74321;BMP280;62738;45.772;4.804;2023-04-15T04:13:57;98869.59;;;13.28
74321;BMP280;62738;45.772;4.804;2023-04-15T04:16:23;98868.16;;;13.39
74321;BMP280;62738;45.772;4.804;2023-04-15T04:18:50;98867.69;;;13.42
74321;BMP280;62738;45.772;4.804;2023-04-15T04:21:17;98865.13;;;13.58
74321;BMP280;62738;45.772;4.804;2023-04-15T04:23:44;98871.19;;;13.43
74321;BMP280;62738;45.772;4.804;2023-04-15T04:26:11;98868.28;;;13.29
74321;BMP280;62738;45.772;4.804;2023-04-15T04:28:38;98863.06;;;13.58
74321;BMP280;62738;45.772;4.804;2023-04-15T04:31:07;98874.78;;;13.22
74321;BMP280;62738;45.772;4.804;2023-04-15T04:33:34;98877.44;;;13.20
74321;BMP280;62738;45.772;4.804;2023-04-15T04:36:01;98872.63;;;13.55
74321;BMP280;62738;45.772;4.804;2023-04-15T04:38:27;98877.72;;;13.59
74321;BMP280;62738;45.772;4.804;2023-04-15T04:40:54;98882.44;;;13.45
74321;BMP280;62738;45.772;4.804;2023-04-15T04:43:21;98887.91;;;13.43
74321;BMP280;62738;45.772;4.804;2023-04-15T04:45:47;98894.31;;;13.34
74321;BMP280;62738;45.772;4.804;2023-04-15T04:48:14;98889.94;;;13.19
74321;BMP280;62738;45.772;4.804;2023-04-15T04:50:41;98896.84;;;13.18
74321;BMP280;62738;45.772;4.804;2023-04-15T04:53:08;98893.59;;;12.89
74321;BMP280;62738;45.772;4.804;2023-04-15T04:55:34;98904.34;;;12.83
74321;BMP280;62738;45.772;4.804;2023-04-15T04:58:04;98893.94;;;12.71
74321;BMP280;62738;45.772;4.804;2023-04-15T05:00:31;98897.44;;;12.72
74321;BMP280;62738;45.772;4.804;2023-04-15T05:02:57;98894.53;;;12.70
74321;BMP280;62738;45.772;4.804;2023-04-15T05:05:24;98900.00;;;12.47
74321;BMP280;62738;45.772;4.804;2023-04-15T05:07:51;98895.97;;;12.38
74321;BMP280;62738;45.772;4.804;2023-04-15T05:10:18;98901.19;;;12.44
74321;BMP280;62738;45.772;4.804;2023-04-15T05:12:45;98900.84;;;12.28
74321;BMP280;62738;45.772;4.804;2023-04-15T05:15:11;98906.25;;;12.26
74321;BMP280;62738;45.772;4.804;2023-04-15T05:17:38;98925.72;;;12.26
74321;BMP280;62738;45.772;4.804;2023-04-15T05:20:05;98930.09;;;12.08
74321;BMP280;62738;45.772;4.804;2023-04-15T05:22:32;98948.97;;;11.78
74321;BMP280;62738;45.772;4.804;2023-04-15T05:24:59;98968.00;;;11.72
74321;BMP280;62738;45.772;4.804;2023-04-15T05:27:25;98963.69;;;11.40
74321;BMP280;62738;45.772;4.804;2023-04-15T05:29:52;98961.91;;;11.55
74321;BMP280;62738;45.772;4.804;2023-04-15T05:32:18;98969.25;;;11.31
74321;BMP280;62738;45.772;4.804;2023-04-15T05:34:45;98970.31;;;11.06
74321;BMP280;62738;45.772;4.804;2023-04-15T05:37:12;98967.97;;;11.13
74321;BMP280;62738;45.772;4.804;2023-04-15T05:39:39;98971.50;;;10.94
74321;BMP280;62738;45.772;4.804;2023-04-15T05:42:05;98968.56;;;11.01
74321;BMP280;62738;45.772;4.804;2023-04-15T05:44:32;98979.38;;;10.88
74321;BMP280;62738;45.772;4.804;2023-04-15T05:46:59;98978.94;;;10.91
74321;BMP280;62738;45.772;4.804;2023-04-15T05:49:26;98970.59;;;10.91
74321;BMP280;62738;45.772;4.804;2023-04-15T05:51:52;98954.53;;;11.09
74321;BMP280;62738;45.772;4.804;2023-04-15T05:54:19;98944.75;;;11.27
74321;BMP280;62738;45.772;4.804;2023-04-15T05:56:51;98947.63;;;11.39
74321;BMP280;62738;45.772;4.804;2023-04-15T05:59:17;98954.47;;;11.38
74321;BMP280;62738;45.772;4.804;2023-04-15T06:01:44;98944.16;;;11.29
74321;BMP280;62738;45.772;4.804;2023-04-15T06:04:11;98946.00;;;11.45
74321;BMP280;62738;45.772;4.804;2023-04-15T06:06:37;98939.91;;;11.78
74321;BMP280;62738;45.772;4.804;2023-04-15T06:09:04;98937.72;;;11.76
74321;BMP280;62738;45.772;4.804;2023-04-15T06:11:31;98949.53;;;11.86
74321;BMP280;62738;45.772;4.804;2023-04-15T06:13:57;98934.03;;;11.83
74321;BMP280;62738;45.772;4.804;2023-04-15T06:16:24;98937.41;;;12.34
74321;BMP280;62738;45.772;4.804;2023-04-15T06:18:51;98935.50;;;12.15
74321;BMP280;62738;45.772;4.804;2023-04-15T06:21:18;98938.53;;;12.19
74321;BMP280;62738;45.772;4.804;2023-04-15T06:23:45;98951.16;;;12.11
74321;BMP280;62738;45.772;4.804;2023-04-15T06:26:11;98944.69;;;12.18
74321;BMP280;62738;45.772;4.804;2023-04-15T06:28:38;98937.88;;;12.30
74321;BMP280;62738;45.772;4.804;2023-04-15T06:31:04;98944.50;;;12.47
74321;BMP280;62738;45.772;4.804;2023-04-15T06:33:31;98937.25;;;12.74
74321;BMP280;62738;45.772;4.804;2023-04-15T06:35:58;98949.59;;;12.50
74321;BMP280;62738;45.772;4.804;2023-04-15T06:38:24;98969.09;;;12.50
74321;BMP280;62738;45.772;4.804;2023-04-15T06:40:51;98970.38;;;12.28
74321;BMP280;62738;45.772;4.804;2023-04-15T06:43:18;98972.31;;;12.68
74321;BMP280;62738;45.772;4.804;2023-04-15T06:45:45;98979.06;;;12.65
74321;BMP280;62738;45.772;4.804;2023-04-15T06:48:12;98989.38;;;12.31
74321;BMP280;62738;45.772;4.804;2023-04-15T06:50:39;99007.41;;;12.30
74321;BMP280;62738;45.772;4.804;2023-04-15T06:53:06;99014.22;;;12.39
74321;BMP280;62738;45.772;4.804;2023-04-15T06:55:33;99016.22;;;12.48
74321;BMP280;62738;45.772;4.804;2023-04-15T06:57:59;99017.78;;;12.30
74321;BMP280;62738;45.772;4.804;2023-04-15T07:00:26;99038.09;;;12.02
74321;BMP280;62738;45.772;4.804;2023-04-15T07:05:38;99034.53;;;12.72
74321;BMP280;62738;45.772;4.804;2023-04-15T07:08:05;99027.91;;;12.78
74321;BMP280;62738;45.772;4.804;2023-04-15T07:10:35;99041.28;;;12.69
74321;BMP280;62738;45.772;4.804;2023-04-15T07:13:03;99025.97;;;13.01
74321;BMP280;62738;45.772;4.804;2023-04-15T07:15:30;99035.03;;;13.02
74321;BMP280;62738;45.772;4.804;2023-04-15T07:17:56;99052.66;;;12.73
74321;BMP280;62738;45.772;4.804;2023-04-15T07:20:23;99046.69;;;12.15
74321;BMP280;62738;45.772;4.804;2023-04-15T07:22:50;99065.13;;;12.20
74321;BMP280;62738;45.772;4.804;2023-04-15T07:25:16;99067.91;;;12.20
74321;BMP280;62738;45.772;4.804;2023-04-15T07:27:44;99062.50;;;12.13
74321;BMP280;62738;45.772;4.804;2023-04-15T07:30:11;99058.00;;;11.98
74321;BMP280;62738;45.772;4.804;2023-04-15T07:32:38;99072.16;;;12.12
74321;BMP280;62738;45.772;4.804;2023-04-15T07:35:06;99064.84;;;12.16
74321;BMP280;62738;45.772;4.804;2023-04-15T07:37:33;99081.47;;;12.26
74321;BMP280;62738;45.772;4.804;2023-04-15T07:39:59;99078.59;;;12.05
74321;BMP280;62738;45.772;4.804;2023-04-15T07:42:26;99078.31;;;12.10
74321;BMP280;62738;45.772;4.804;2023-04-15T07:44:53;99091.78;;;12.04
74321;BMP280;62738;45.772;4.804;2023-04-15T07:47:19;99109.84;;;11.74
74321;BMP280;62738;45.772;4.804;2023-04-15T07:49:46;99098.28;;;11.68
74321;BMP280;62738;45.772;4.804;2023-04-15T07:52:13;99095.41;;;11.57
74321;BMP280;62738;45.772;4.804;2023-04-15T07:54:39;99096.28;;;11.21
74321;BMP280;62738;45.772;4.804;2023-04-15T07:57:06;99120.78;;;11.15
74321;BMP280;62738;45.772;4.804;2023-04-15T07:59:33;99095.34;;;11.08
74321;BMP280;62738;45.772;4.804;2023-04-15T08:02:00;99113.75;;;11.04
74321;BMP280;62738;45.772;4.804;2023-04-15T08:04:26;99101.50;;;10.97
74321;BMP280;62738;45.772;4.804;2023-04-15T08:06:54;99109.84;;;11.45
74321;BMP280;62738;45.772;4.804;2023-04-15T08:09:20;99127.84;;;11.54
74321;BMP280;62738;45.772;4.804;2023-04-15T08:11:48;99127.53;;;11.60
74321;BMP280;62738;45.772;4.804;2023-04-15T08:14:15;99139.25;;;11.87
74321;BMP280;62738;45.772;4.804;2023-04-15T08:16:42;99117.59;;;11.66
74321;BMP280;62738;45.772;4.804;2023-04-15T08:19:08;99120.97;;;11.74
74321;BMP280;62738;45.772;4.804;2023-04-15T08:21:35;99111.75;;;11.72
74321;BMP280;62738;45.772;4.804;2023-04-15T08:24:02;99131.50;;;11.47
74321;BMP280;62738;45.772;4.804;2023-04-15T08:26:29;99123.00;;;11.26
74321;BMP280;62738;45.772;4.804;2023-04-15T08:28:56;99130.56;;;11.92
74321;BMP280;62738;45.772;4.804;2023-04-15T08:31:22;99128.22;;;12.18
74321;BMP280;62738;45.772;4.804;2023-04-15T08:33:49;99124.59;;;11.77
74321;BMP280;62738;45.772;4.804;2023-04-15T08:36:18;99117.75;;;11.78
74321;BMP280;62738;45.772;4.804;2023-04-15T08:38:45;99129.69;;;12.00
74321;BMP280;62738;45.772;4.804;2023-04-15T08:41:22;99125.94;;;11.85
74321;BMP280;62738;45.772;4.804;2023-04-15T08:44:00;99132.22;;;11.67
74321;BMP280;62738;45.772;4.804;2023-04-15T08:46:28;99118.19;;;11.65
74321;BMP280;62738;45.772;4.804;2023-04-15T08:48:56;99124.63;;;11.86
74321;BMP280;62738;45.772;4.804;2023-04-15T08:51:24;99141.53;;;12.10
74321;BMP280;62738;45.772;4.804;2023-04-15T08:53:51;99121.72;;;12.25
74321;BMP280;62738;45.772;4.804;2023-04-15T08:56:18;99135.13;;;12.79
74321;BMP280;62738;45.772;4.804;2023-04-15T08:58:46;99161.59;;;12.18
74321;BMP280;62738;45.772;4.804;2023-04-15T09:01:13;99137.56;;;12.13
74321;BMP280;62738;45.772;4.804;2023-04-15T09:03:40;99143.75;;;12.02
74321;BMP280;62738;45.772;4.804;2023-04-15T09:06:08;99145.94;;;12.03
74321;BMP280;62738;45.772;4.804;2023-04-15T09:08:34;99155.53;;;12.71
74321;BMP280;62738;45.772;4.804;2023-04-15T09:11:02;99144.66;;;13.06
74321;BMP280;62738;45.772;4.804;2023-04-15T09:13:29;99156.66;;;12.78
74321;BMP280;62738;45.772;4.804;2023-04-15T09:15:56;99165.16;;;12.40
74321;BMP280;62738;45.772;4.804;2023-04-15T09:18:31;99172.63;;;12.37
74321;BMP280;62738;45.772;4.804;2023-04-15T09:21:07;99151.72;;;12.26
74321;BMP280;62738;45.772;4.804;2023-04-15T09:23:38;99162.28;;;12.90
74321;BMP280;62738;45.772;4.804;2023-04-15T09:26:05;99182.44;;;12.38
74321;BMP280;62738;45.772;4.804;2023-04-15T09:28:31;99158.00;;;12.27
74321;BMP280;62738;45.772;4.804;2023-04-15T09:30:59;99161.28;;;12.14
74321;BMP280;62738;45.772;4.804;2023-04-15T09:33:28;99162.91;;;12.57
74321;BMP280;62738;45.772;4.804;2023-04-15T09:35:59;99158.44;;;12.33
74321;BMP280;62738;45.772;4.804;2023-04-15T09:38:27;99181.41;;;12.43
74321;BMP280;62738;45.772;4.804;2023-04-15T09:40:54;99195.47;;;12.36
74321;BMP280;62738;45.772;4.804;2023-04-15T09:43:21;99209.81;;;12.32
74321;BMP280;62738;45.772;4.804;2023-04-15T09:45:50;99212.97;;;11.88
74321;BMP280;62738;45.772;4.804;2023-04-15T09:48:22;99233.50;;;11.37
74321;BMP280;62738;45.772;4.804;2023-04-15T09:50:50;99229.16;;;11.43
74321;BMP280;62738;45.772;4.804;2023-04-15T09:53:20;99248.19;;;11.57
74321;BMP280;62738;45.772;4.804;2023-04-15T09:55:57;99235.03;;;11.76
74321;BMP280;62738;45.772;4.804;2023-04-15T09:58:25;99227.88;;;12.02
74321;BMP280;62738;45.772;4.804;2023-04-15T10:00:53;99220.69;;;12.18
74321;BMP280;62738;45.772;4.804;2023-04-15T10:03:24;99229.06;;;12.68
74321;BMP280;62738;45.772;4.804;2023-04-15T10:05:52;99246.31;;;12.77
74321;BMP280;62738;45.772;4.804;2023-04-15T10:08:22;99250.50;;;12.87
74321;BMP280;62738;45.772;4.804;2023-04-15T10:10:49;99262.41;;;12.18
74321;BMP280;62738;45.772;4.804;2023-04-15T10:13:24;99250.25;;;11.95
74321;BMP280;62738;45.772;4.804;2023-04-15T10:16:00;99258.16;;;12.08
74321;BMP280;62738;45.772;4.804;2023-04-15T10:18:31;99280.53;;;12.00
74321;BMP280;62738;45.772;4.804;2023-04-15T10:21:00;99278.59;;;11.64
74321;BMP280;62738;45.772;4.804;2023-04-15T10:23:27;99272.00;;;11.69
74321;BMP280;62738;45.772;4.804;2023-04-15T10:25:54;99268.03;;;11.53
74321;BMP280;62738;45.772;4.804;2023-04-15T10:28:21;99297.28;;;11.54
74321;BMP280;62738;45.772;4.804;2023-04-15T10:30:48;99274.97;;;11.81
74321;BMP280;62738;45.772;4.804;2023-04-15T10:33:18;99259.88;;;11.55
74321;BMP280;62738;45.772;4.804;2023-04-15T10:35:47;99270.84;;;11.91
74321;BMP280;62738;45.772;4.804;2023-04-15T10:38:44;99267.94;;;12.28
74321;BMP280;62738;45.772;4.804;2023-04-15T10:41:18;99278.34;;;12.37
74321;BMP280;62738;45.772;4.804;2023-04-15T10:46:21;99271.09;;;12.72
74321;BMP280;62738;45.772;4.804;2023-04-15T10:48:49;99273.63;;;12.49
74321;BMP280;62738;45.772;4.804;2023-04-15T10:51:26;99271.41;;;12.57
74321;BMP280;62738;45.772;4.804;2023-04-15T10:53:58;99277.75;;;12.39
74321;BMP280;62738;45.772;4.804;2023-04-15T10:56:27;99283.16;;;12.46
74321;BMP280;62738;45.772;4.804;2023-04-15T10:58:54;99280.22;;;12.34
74321;BMP280;62738;45.772;4.804;2023-04-15T11:01:21;99285.34;;;12.98
74321;BMP280;62738;45.772;4.804;2023-04-15T11:03:48;99291.50;;;12.96
74321;BMP280;62738;45.772;4.804;2023-04-15T11:06:17;99305.22;;;12.54
74321;BMP280;62738;45.772;4.804;2023-04-15T11:08:55;99292.69;;;12.43
74321;BMP280;62738;45.772;4.804;2023-04-15T11:11:22;99298.53;;;12.38
74321;BMP280;62738;45.772;4.804;2023-04-15T11:13:50;99289.59;;;12.49
74321;BMP280;62738;45.772;4.804;2023-04-15T11:16:17;99299.53;;;12.52
74321;BMP280;62738;45.772;4.804;2023-04-15T11:18:54;99323.72;;;12.49
74321;BMP280;62738;45.772;4.804;2023-04-15T11:21:24;99316.25;;;12.13
74321;BMP280;62738;45.772;4.804;2023-04-15T11:23:51;99307.59;;;12.00
74321;BMP280;62738;45.772;4.804;2023-04-15T11:26:18;99311.88;;;12.20
74321;BMP280;62738;45.772;4.804;2023-04-15T11:28:45;99329.38;;;11.93
74321;BMP280;62738;45.772;4.804;2023-04-15T11:31:16;99315.19;;;11.89
74321;BMP280;62738;45.772;4.804;2023-04-15T11:33:54;99324.81;;;11.69
74321;BMP280;62738;45.772;4.804;2023-04-15T11:36:23;99316.97;;;12.14
74321;BMP280;62738;45.772;4.804;2023-04-15T11:38:50;99312.88;;;11.96
74321;BMP280;62738;45.772;4.804;2023-04-15T11:41:20;99322.09;;;12.27
74321;BMP280;62738;45.772;4.804;2023-04-15T11:43:48;99310.41;;;12.38
74321;BMP280;62738;45.772;4.804;2023-04-15T11:46:14;99327.22;;;12.30
74321;BMP280;62738;45.772;4.804;2023-04-15T11:48:43;99331.91;;;12.09
74321;BMP280;62738;45.772;4.804;2023-04-15T11:51:11;99331.78;;;12.16
74321;BMP280;62738;45.772;4.804;2023-04-15T11:53:42;99339.81;;;12.31
74321;BMP280;62738;45.772;4.804;2023-04-15T11:56:15;99350.00;;;11.81
74321;BMP280;62738;45.772;4.804;2023-04-15T11:58:42;99351.91;;;11.78
74321;BMP280;62738;45.772;4.804;2023-04-15T12:01:12;99354.91;;;12.09
74321;BMP280;62738;45.772;4.804;2023-04-15T12:03:42;99362.00;;;11.93
74321;BMP280;62738;45.772;4.804;2023-04-15T12:14:26;99383.81;;;11.97
74321;BMP280;62738;45.772;4.804;2023-04-15T12:16:56;99370.53;;;12.05
74321;BMP280;62738;45.772;4.804;2023-04-15T12:22:00;99369.44;;;11.71
74321;BMP280;62738;45.772;4.804;2023-04-15T12:24:30;99365.69;;;12.05
74321;BMP280;62738;45.772;4.804;2023-04-15T12:27:02;99375.22;;;12.12
74321;BMP280;62738;45.772;4.804;2023-04-15T12:29:29;99377.53;;;11.86
74321;BMP280;62738;45.772;4.804;2023-04-15T12:31:58;99374.66;;;12.23
74321;BMP280;62738;45.772;4.804;2023-04-15T12:34:30;99398.34;;;12.14
74321;BMP280;62738;45.772;4.804;2023-04-15T12:36:58;99384.78;;;11.36
74321;BMP280;62738;45.772;4.804;2023-04-15T12:39:26;99389.53;;;11.89
74321;BMP280;62738;45.772;4.804;2023-04-15T12:41:56;99400.63;;;11.79
74321;BMP280;62738;45.772;4.804;2023-04-15T12:44:23;99395.06;;;11.79
74321;BMP280;62738;45.772;4.804;2023-04-15T12:46:50;99414.16;;;11.66
74321;BMP280;62738;45.772;4.804;2023-04-15T12:49:23;99387.25;;;11.59
74321;BMP280;62738;45.772;4.804;2023-04-15T12:51:50;99409.81;;;11.45
74321;BMP280;62738;45.772;4.804;2023-04-15T12:54:17;99401.75;;;11.40
74321;BMP280;62738;45.772;4.804;2023-04-15T12:56:45;99398.25;;;11.39
74321;BMP280;62738;45.772;4.804;2023-04-15T12:59:12;99422.88;;;11.26
74321;BMP280;62738;45.772;4.804;2023-04-15T13:01:39;99413.97;;;11.54
74321;BMP280;62738;45.772;4.804;2023-04-15T13:04:06;99412.09;;;11.57
74321;BMP280;62738;45.772;4.804;2023-04-15T13:06:33;99429.09;;;11.17
74321;BMP280;62738;45.772;4.804;2023-04-15T13:09:01;99417.69;;;11.13
74321;BMP280;62738;45.772;4.804;2023-04-15T13:11:31;99435.09;;;11.40
74321;BMP280;62738;45.772;4.804;2023-04-15T13:14:03;99433.84;;;11.50
74321;BMP280;62738;45.772;4.804;2023-04-15T13:16:31;99428.56;;;11.45
74321;BMP280;62738;45.772;4.804;2023-04-15T13:18:59;99422.56;;;11.48
74321;BMP280;62738;45.772;4.804;2023-04-15T13:21:26;99490.53;;;11.21
74321;BMP280;62738;45.772;4.804;2023-04-15T13:23:53;99449.72;;;10.96
74321;BMP280;62738;45.772;4.804;2023-04-15T13:26:20;99439.00;;;11.10
74321;BMP280;62738;45.772;4.804;2023-04-15T13:28:47;99447.41;;;11.20
74321;BMP280;62738;45.772;4.804;2023-04-15T13:31:13;99445.69;;;11.61
74321;BMP280;62738;45.772;4.804;2023-04-15T13:33:40;99457.88;;;11.38
74321;BMP280;62738;45.772;4.804;2023-04-15T13:36:07;99450.41;;;11.58
74321;BMP280;62738;45.772;4.804;2023-04-15T13:38:34;99452.13;;;11.27
74321;BMP280;62738;45.772;4.804;2023-04-15T13:41:00;99456.38;;;11.10
74321;BMP280;62738;45.772;4.804;2023-04-15T13:43:27;99459.81;;;11.01
74321;BMP280;62738;45.772;4.804;2023-04-15T13:45:54;99464.16;;;11.12
74321;BMP280;62738;45.772;4.804;2023-04-15T13:48:20;99466.34;;;11.14
74321;BMP280;62738;45.772;4.804;2023-04-15T13:50:47;99476.63;;;11.21
74321;BMP280;62738;45.772;4.804;2023-04-15T13:53:14;99472.47;;;11.29
74321;BMP280;62738;45.772;4.804;2023-04-15T13:55:41;99484.16;;;11.10
74321;BMP280;62738;45.772;4.804;2023-04-15T13:58:08;99470.19;;;11.18
74321;BMP280;62738;45.772;4.804;2023-04-15T14:00:35;99474.13;;;11.42
74321;BMP280;62738;45.772;4.804;2023-04-15T14:03:02;99476.44;;;11.36
74321;BMP280;62738;45.772;4.804;2023-04-15T14:05:29;99476.09;;;11.32
74321;BMP280;62738;45.772;4.804;2023-04-15T14:07:56;99490.16;;;10.99
74321;BMP280;62738;45.772;4.804;2023-04-15T14:10:24;99480.28;;;11.23
74321;BMP280;62738;45.772;4.804;2023-04-15T14:12:51;99494.78;;;11.31
74321;BMP280;62738;45.772;4.804;2023-04-15T14:15:17;99480.69;;;11.37
74321;BMP280;62738;45.772;4.804;2023-04-15T14:17:44;99496.91;;;11.58
74321;BMP280;62738;45.772;4.804;2023-04-15T14:20:11;99514.81;;;11.47
74321;BMP280;62738;45.772;4.804;2023-04-15T14:22:40;99541.63;;;11.18
74321;BMP280;62738;45.772;4.804;2023-04-15T14:25:08;99497.88;;;10.74
74321;BMP280;62738;45.772;4.804;2023-04-15T14:27:42;99510.63;;;10.94